Terminal Aerodrome Forecast
Issued by NWS

Home | Current Version | Previous Version | Text Only | Print | Product List | Glossary On
Versions: 1 2 3 4 5 6 7 8 9 10 11 12 13 14 15 16 17 18 19 20 21 22
000
FTUS45 KTFX 042050 AAB
TAFCTB
TAF AMD
KCTB 042050Z 0421/0518 25014KT P6SM BKN070
      TEMPO 0421/0422 27020G30KT 1SM -SHSN BKN015
     FM042200 01018KT 4SM -SHSN BR SCT020 BKN040
      TEMPO 0422/0502 1SM -SN BR BKN015
     FM050200 35008KT 1SM -SN BR SCT007 BKN015
     FM050600 02008KT 4SM -SN BR SCT007 BKN015=

USA.gov is the U.S. government's official web portal to all federal, state and local government web resources and services.